createdAt,value
2019-04-30T00:00:06.245Z,53.43
2019-04-30T00:02:40.059Z,46.10
2019-04-30T00:05:10.026Z,50.80
2019-04-30T00:07:40.763Z,50.13
2019-04-30T00:10:10.257Z,47.57
2019-04-30T00:12:39.791Z,50.87
2019-04-30T00:15:10.887Z,49.17
2019-04-30T00:17:40.265Z,49.83
2019-04-30T00:20:09.952Z,49.67
2019-04-30T00:22:46.532Z,50.33
2019-04-30T00:25:10.318Z,54.47
2019-04-30T00:27:39.663Z,51.00
2019-04-30T00:30:09.282Z,53.07
2019-04-30T00:32:43.500Z,51.20
2019-04-30T00:35:11.900Z,53.30
2019-04-30T00:37:40.969Z,48.77
2019-04-30T00:40:10.291Z,52.27
2019-04-30T00:42:39.382Z,54.57
2019-04-30T00:45:10.165Z,52.77
2019-04-30T00:47:43.690Z,49.17
2019-04-30T00:50:11.140Z,46.97
2019-04-30T00:52:40.357Z,52.30
2019-04-30T00:55:09.937Z,52.93
2019-04-30T00:57:43.817Z,56.83
2019-04-30T01:00:12.617Z,65.83
2019-04-30T01:02:55.576Z,58.10
2019-04-30T01:05:26.955Z,60.83
2019-04-30T01:07:56.608Z,58.90
2019-04-30T01:10:28.346Z,55.93
2019-04-30T01:12:59.870Z,60.33
2019-04-30T01:15:29.168Z,63.37
2019-04-30T01:17:59.392Z,52.47
2019-04-30T01:20:32.664Z,55.93
2019-04-30T01:23:03.014Z,56.93
2019-04-30T01:25:31.576Z,58.90
2019-04-30T01:28:01.608Z,54.73
2019-04-30T01:30:30.926Z,53.30
2019-04-30T01:33:01.060Z,59.73
2019-04-30T01:35:32.714Z,51.00
2019-04-30T01:38:04.069Z,54.87
2019-04-30T01:40:32.452Z,51.57
2019-04-30T01:43:01.751Z,60.80
2019-04-30T01:45:31.709Z,55.67
2019-04-30T01:48:08.614Z,60.13
2019-04-30T01:50:33.795Z,56.00
2019-04-30T01:53:04.856Z,53.23
2019-04-30T01:55:42.249Z,58.97
2019-04-30T01:58:29.947Z,52.47
2019-04-30T02:01:00.381Z,57.77
2019-04-30T02:03:30.071Z,67.73
2019-04-30T02:05:59.712Z,56.40
2019-04-30T02:08:29.543Z,57.83
2019-04-30T02:10:59.428Z,55.20
2019-04-30T02:13:29.462Z,51.37
2019-04-30T02:15:59.807Z,55.27
2019-04-30T02:18:29.598Z,48.50
2019-04-30T02:20:59.450Z,48.90
2019-04-30T02:23:29.700Z,56.57
2019-04-30T02:25:59.380Z,52.87
2019-04-30T02:28:29.094Z,57.60
2019-04-30T02:31:00.309Z,52.23
2019-04-30T02:33:30.920Z,49.47
2019-04-30T02:36:22.466Z,50.83
2019-04-30T02:38:54.577Z,48.87
2019-04-30T02:41:24.918Z,53.30
2019-04-30T02:43:55.681Z,48.77
2019-04-30T02:46:31.962Z,49.13
2019-04-30T02:48:59.829Z,50.30
2019-04-30T02:51:30.069Z,54.57
2019-04-30T02:54:04.635Z,51.10
2019-04-30T02:56:34.668Z,54.93
2019-04-30T02:59:04.592Z,54.57
2019-04-30T03:01:33.772Z,50.07
2019-04-30T03:04:03.187Z,52.13
2019-04-30T03:06:35.171Z,56.40
2019-04-30T03:09:10.758Z,51.57
2019-04-30T03:11:40.910Z,51.00
2019-04-30T03:14:10.834Z,53.17
2019-04-30T03:16:52.701Z,52.60
2019-04-30T03:19:29.342Z,55.03
2019-04-30T03:22:05.144Z,51.03
2019-04-30T03:24:34.713Z,55.00
2019-04-30T03:27:04.107Z,51.63
2019-04-30T03:29:33.391Z,46.63
2019-04-30T03:32:03.724Z,54.33
2019-04-30T03:34:33.402Z,52.27
2019-04-30T03:37:03.092Z,52.43
2019-04-30T03:39:33.940Z,52.20
2019-04-30T03:42:03.409Z,52.77
2019-04-30T03:44:32.876Z,58.10
2019-04-30T03:47:02.757Z,51.20
2019-04-30T03:49:32.456Z,57.87
2019-04-30T03:52:01.866Z,59.27
2019-04-30T03:54:31.242Z,51.13
2019-04-30T03:57:01.161Z,48.00
2019-04-30T03:59:30.493Z,65.27
2019-04-30T04:02:20.834Z,65.20
2019-04-30T04:05:15.037Z,63.90
2019-04-30T04:07:49.856Z,62.33
2019-04-30T04:10:56.955Z,57.93
2019-04-30T04:13:26.348Z,64.57
2019-04-30T04:15:55.550Z,74.90
2019-04-30T04:18:24.999Z,65.00
2019-04-30T04:21:07.408Z,65.53
2019-04-30T04:23:25.068Z,69.07
2019-04-30T04:25:54.615Z,73.33
2019-04-30T04:28:23.788Z,66.33
2019-04-30T04:30:53.021Z,70.03
2019-04-30T04:33:22.379Z,63.73
2019-04-30T04:35:52.009Z,59.20
2019-04-30T04:38:21.678Z,62.77
2019-04-30T04:40:51.141Z,60.27
2019-04-30T04:43:20.510Z,59.87
2019-04-30T04:45:50.103Z,59.90
2019-04-30T04:48:23.039Z,57.20
2019-04-30T04:50:50.859Z,56.97
2019-04-30T04:53:20.150Z,55.43
2019-04-30T04:55:49.995Z,55.53
2019-04-30T04:58:21.698Z,53.10
2019-04-30T05:00:50.300Z,62.03
2019-04-30T05:03:49.001Z,55.83
2019-04-30T05:06:22.012Z,60.33
2019-04-30T05:08:49.679Z,60.67
2019-04-30T05:11:19.271Z,61.53
2019-04-30T05:13:48.974Z,58.90
2019-04-30T05:16:19.062Z,57.20
2019-04-30T05:18:48.926Z,53.07
2019-04-30T05:21:18.945Z,49.50
2019-04-30T05:23:49.288Z,60.03
2019-04-30T05:26:19.191Z,53.77
2019-04-30T05:28:51.150Z,55.27
2019-04-30T05:31:21.102Z,54.57
2019-04-30T05:33:53.801Z,53.17
2019-04-30T05:36:23.182Z,54.47
2019-04-30T05:38:52.470Z,49.53
2019-04-30T05:41:22.011Z,54.10
2019-04-30T05:43:51.473Z,48.50
2019-04-30T05:46:21.054Z,47.37
2019-04-30T05:48:52.059Z,47.63
2019-04-30T05:51:21.444Z,46.90
2019-04-30T05:53:51.050Z,49.97
2019-04-30T05:56:20.428Z,43.00
2019-04-30T05:58:49.852Z,44.83
2019-04-30T06:01:24.194Z,39.93
2019-04-30T06:03:54.018Z,43.30
2019-04-30T06:06:23.701Z,40.53
2019-04-30T06:09:06.171Z,42.30
2019-04-30T06:11:50.976Z,42.17
2019-04-30T06:14:25.464Z,40.80
2019-04-30T06:17:09.754Z,41.83
2019-04-30T06:19:39.497Z,43.13
2019-04-30T06:22:10.954Z,40.60
2019-04-30T06:24:40.070Z,39.13
2019-04-30T06:27:12.763Z,37.60
2019-04-30T06:29:41.957Z,38.50
2019-04-30T06:32:11.262Z,39.20
2019-04-30T06:34:42.017Z,39.73
2019-04-30T06:37:11.676Z,41.73
2019-04-30T06:39:41.150Z,38.00
2019-04-30T06:42:12.761Z,36.93
2019-04-30T06:44:41.974Z,36.37
2019-04-30T06:47:11.482Z,35.30
2019-04-30T06:49:41.114Z,34.20
2019-04-30T06:52:19.925Z,33.73
2019-04-30T06:54:41.919Z,31.97
2019-04-30T06:57:12.097Z,31.13
2019-04-30T06:59:41.591Z,31.07
2019-04-30T07:02:10.916Z,25.07
2019-04-30T07:04:40.294Z,27.47
2019-04-30T07:07:09.951Z,25.17
2019-04-30T07:10:01.233Z,28.07
2019-04-30T07:13:04.798Z,26.60
2019-04-30T07:15:34.079Z,25.77
2019-04-30T07:18:03.460Z,25.80
2019-04-30T07:20:34.129Z,34.13
2019-04-30T07:23:03.719Z,27.60
2019-04-30T07:25:32.995Z,23.80
2019-04-30T07:28:02.530Z,28.67
2019-04-30T07:30:31.714Z,25.10
2019-04-30T07:33:01.052Z,26.27
2019-04-30T07:35:30.165Z,26.67
2019-04-30T07:38:04.820Z,27.73
2019-04-30T07:40:33.008Z,26.00
2019-04-30T07:43:02.506Z,27.43
2019-04-30T07:45:32.321Z,24.73
2019-04-30T07:48:01.727Z,25.67
2019-04-30T07:50:31.672Z,26.30
2019-04-30T07:53:05.735Z,26.30
2019-04-30T07:55:32.351Z,26.23
2019-04-30T07:58:01.567Z,27.10
2019-04-30T08:00:31.268Z,24.70
2019-04-30T08:03:07.303Z,24.80
2019-04-30T08:05:41.160Z,25.50
2019-04-30T08:08:21.067Z,24.43
2019-04-30T08:10:41.986Z,24.37
2019-04-30T08:13:15.136Z,23.23
2019-04-30T08:15:42.924Z,25.97
2019-04-30T08:18:12.362Z,23.77
2019-04-30T08:20:42.299Z,26.43
2019-04-30T08:23:17.340Z,25.40
2019-04-30T08:25:42.660Z,24.53
2019-04-30T08:28:11.782Z,25.10
2019-04-30T08:30:41.090Z,23.07
2019-04-30T08:33:10.623Z,24.00
2019-04-30T08:35:39.994Z,23.73
2019-04-30T08:38:10.840Z,24.33
2019-04-30T08:40:53.367Z,23.90
2019-04-30T08:43:12.036Z,25.53
2019-04-30T08:45:41.434Z,24.83
2019-04-30T08:48:10.992Z,25.33
2019-04-30T08:50:40.365Z,24.33
2019-04-30T08:53:10.923Z,24.50
2019-04-30T08:55:40.695Z,19.07
2019-04-30T08:58:14.861Z,20.07
2019-04-30T09:00:41.343Z,20.23
2019-04-30T09:03:10.396Z,17.53
2019-04-30T09:05:58.968Z,18.53
2019-04-30T09:08:29.415Z,18.70
2019-04-30T09:10:59.555Z,19.93
2019-04-30T09:13:28.848Z,17.03
2019-04-30T09:15:59.336Z,21.47
2019-04-30T09:18:29.189Z,20.13
2019-04-30T09:21:06.085Z,22.47
2019-04-30T09:23:43.318Z,19.23
2019-04-30T09:26:02.191Z,20.47
2019-04-30T09:28:31.831Z,21.47
2019-04-30T09:31:00.976Z,16.83
2019-04-30T09:33:30.876Z,17.50
2019-04-30T09:36:00.449Z,21.07
2019-04-30T09:38:30.887Z,18.90
2019-04-30T09:40:59.966Z,19.00
2019-04-30T09:43:29.478Z,19.90
2019-04-30T09:45:59.342Z,20.93
2019-04-30T09:48:30.499Z,17.70
2019-04-30T09:51:01.073Z,19.57
2019-04-30T09:53:31.648Z,23.97
2019-04-30T09:56:01.686Z,19.93
2019-04-30T09:58:31.045Z,19.57
2019-04-30T10:01:03.271Z,19.87
2019-04-30T10:03:33.733Z,18.20
2019-04-30T10:06:03.525Z,17.80
2019-04-30T10:08:32.824Z,19.83
2019-04-30T10:11:12.659Z,22.20
2019-04-30T10:13:42.458Z,21.03
2019-04-30T10:16:19.588Z,20.43
2019-04-30T10:18:49.055Z,19.20
2019-04-30T10:21:19.125Z,20.07
2019-04-30T10:23:49.896Z,19.67
2019-04-30T10:26:19.810Z,19.53
2019-04-30T10:28:50.625Z,18.70
2019-04-30T10:31:23.114Z,21.43
2019-04-30T10:33:52.794Z,20.60
2019-04-30T10:36:22.670Z,19.50
2019-04-30T10:38:52.140Z,18.70
2019-04-30T10:41:21.871Z,17.50
2019-04-30T10:43:51.265Z,17.40
2019-04-30T10:46:20.762Z,17.60
2019-04-30T10:48:50.274Z,18.50
2019-04-30T10:51:19.857Z,18.03
2019-04-30T10:53:50.926Z,17.87
2019-04-30T10:56:20.131Z,21.03
2019-04-30T10:58:49.416Z,18.97
2019-04-30T11:01:20.341Z,19.80
2019-04-30T11:03:49.443Z,18.03
2019-04-30T11:06:19.193Z,18.50
2019-04-30T11:08:48.847Z,20.43
2019-04-30T11:11:18.176Z,21.83
2019-04-30T11:13:47.823Z,19.53
2019-04-30T11:16:18.755Z,19.27
2019-04-30T11:18:48.167Z,18.07
2019-04-30T11:21:19.426Z,19.60
2019-04-30T11:23:49.439Z,19.57
2019-04-30T11:26:19.214Z,21.30
2019-04-30T11:28:49.132Z,23.00
2019-04-30T11:31:55.964Z,20.93
2019-04-30T11:34:28.037Z,18.70
2019-04-30T11:36:57.061Z,18.97
2019-04-30T11:39:26.686Z,20.83
2019-04-30T11:41:56.032Z,18.93
2019-04-30T11:44:31.060Z,18.57
2019-04-30T11:47:21.393Z,18.17
2019-04-30T11:49:50.859Z,17.23
2019-04-30T11:52:20.221Z,17.07
2019-04-30T11:54:54.149Z,18.37
2019-04-30T11:57:20.736Z,17.53
2019-04-30T11:59:49.990Z,18.93
2019-04-30T12:02:24.221Z,18.40
2019-04-30T12:04:53.798Z,19.10
2019-04-30T12:07:35.714Z,18.73
2019-04-30T12:10:19.368Z,17.87
2019-04-30T12:12:48.783Z,19.67
2019-04-30T12:15:19.220Z,19.27
2019-04-30T12:17:49.365Z,20.93
2019-04-30T12:20:19.738Z,19.40
2019-04-30T12:22:49.419Z,19.83
2019-04-30T12:25:18.885Z,18.40
2019-04-30T12:27:49.024Z,18.80
2019-04-30T12:30:20.584Z,21.47
2019-04-30T12:32:49.713Z,18.27
2019-04-30T12:35:18.900Z,18.60
2019-04-30T12:37:50.845Z,20.93
2019-04-30T12:40:28.717Z,19.23
2019-04-30T12:42:50.372Z,18.97
2019-04-30T12:45:19.884Z,20.63
2019-04-30T12:47:54.087Z,19.23
2019-04-30T12:50:41.024Z,19.73
2019-04-30T12:53:14.892Z,18.87
2019-04-30T12:56:00.356Z,18.20
2019-04-30T12:58:29.993Z,19.07
2019-04-30T13:00:59.277Z,19.23
2019-04-30T13:03:30.667Z,18.10
2019-04-30T13:06:01.325Z,18.47
2019-04-30T13:08:31.470Z,18.40
2019-04-30T13:11:01.576Z,19.47
2019-04-30T13:13:32.443Z,19.70
2019-04-30T13:16:02.312Z,19.10
2019-04-30T13:18:31.560Z,20.53
2019-04-30T13:21:00.844Z,19.37
2019-04-30T13:23:30.086Z,20.03
2019-04-30T13:26:01.063Z,19.30
2019-04-30T13:28:31.725Z,17.67
2019-04-30T13:31:01.322Z,19.87
2019-04-30T13:33:42.180Z,17.60
2019-04-30T13:36:11.491Z,17.80
2019-04-30T13:38:52.084Z,17.80
2019-04-30T13:41:50.734Z,18.80
2019-04-30T13:44:31.603Z,17.10
2019-04-30T13:47:00.588Z,17.27
2019-04-30T13:49:30.251Z,15.83
2019-04-30T13:51:59.825Z,17.17
2019-04-30T13:54:29.300Z,16.23
2019-04-30T13:56:59.385Z,16.70
2019-04-30T13:59:28.775Z,18.23
2019-04-30T14:01:58.847Z,17.57
2019-04-30T14:04:59.485Z,17.60
2019-04-30T14:07:49.693Z,15.70
2019-04-30T14:10:19.566Z,16.60
2019-04-30T14:12:54.893Z,16.63
2019-04-30T14:15:24.124Z,17.00
2019-04-30T14:17:53.441Z,16.87
2019-04-30T14:20:22.743Z,17.17
2019-04-30T14:22:52.134Z,16.93
2019-04-30T14:25:21.968Z,16.53
2019-04-30T14:27:54.502Z,17.00
2019-04-30T14:30:22.752Z,16.87
2019-04-30T14:32:52.024Z,17.60
2019-04-30T14:35:21.288Z,18.23
2019-04-30T14:37:50.571Z,15.47
2019-04-30T14:40:20.814Z,17.87
2019-04-30T14:43:10.101Z,16.70
2019-04-30T14:46:02.408Z,16.80
2019-04-30T14:48:37.823Z,18.73
2019-04-30T14:51:07.873Z,19.03
2019-04-30T14:53:58.912Z,18.23
2019-04-30T14:56:35.679Z,18.53
2019-04-30T14:59:35.882Z,18.10
2019-04-30T15:02:16.089Z,18.30
2019-04-30T15:04:45.570Z,19.30
2019-04-30T15:07:14.831Z,16.93
2019-04-30T15:09:44.191Z,17.23
2019-04-30T15:12:13.532Z,18.10
2019-04-30T15:14:42.926Z,17.73
2019-04-30T15:17:12.032Z,17.07
2019-04-30T15:19:41.169Z,19.30
2019-04-30T15:22:10.552Z,18.20
2019-04-30T15:24:39.982Z,17.70
2019-04-30T15:27:09.408Z,19.10
2019-04-30T15:29:39.307Z,18.47
2019-04-30T15:32:08.845Z,18.07
2019-04-30T15:34:40.807Z,17.33
2019-04-30T15:37:18.750Z,17.70
2019-04-30T15:39:42.074Z,19.53
2019-04-30T15:42:12.597Z,17.57
2019-04-30T15:44:45.895Z,18.33
2019-04-30T15:47:15.545Z,18.33
2019-04-30T15:49:45.110Z,19.13
2019-04-30T15:52:14.371Z,17.73
2019-04-30T15:54:43.735Z,18.50
2019-04-30T15:57:13.120Z,17.33
2019-04-30T15:59:46.452Z,17.60
2019-04-30T16:02:33.722Z,18.50
2019-04-30T16:05:20.914Z,18.47
2019-04-30T16:08:15.019Z,17.90
2019-04-30T16:11:01.921Z,17.27
2019-04-30T16:13:34.677Z,17.57
2019-04-30T16:16:03.908Z,17.17
2019-04-30T16:18:49.372Z,19.67
2019-04-30T16:21:19.399Z,17.50
2019-04-30T16:23:49.248Z,18.63
2019-04-30T16:26:18.502Z,16.70
2019-04-30T16:28:49.494Z,18.60
2019-04-30T16:31:20.392Z,18.87
2019-04-30T16:33:49.999Z,18.30
2019-04-30T16:36:19.418Z,18.93
2019-04-30T16:38:48.847Z,17.13
2019-04-30T16:41:30.669Z,18.00
2019-04-30T16:43:49.623Z,18.13
2019-04-30T16:46:19.203Z,19.17
2019-04-30T16:48:49.293Z,19.27
2019-04-30T16:51:18.993Z,18.03
2019-04-30T16:53:48.735Z,19.53
2019-04-30T16:56:18.628Z,19.17
2019-04-30T16:59:00.208Z,17.63
2019-04-30T17:01:30.621Z,18.67
2019-04-30T17:04:29.064Z,18.60
2019-04-30T17:07:18.772Z,20.57
2019-04-30T17:10:04.683Z,18.93
2019-04-30T17:12:42.517Z,19.77
2019-04-30T17:15:26.517Z,20.73
2019-04-30T17:17:56.071Z,18.73
2019-04-30T17:20:25.326Z,19.47
2019-04-30T17:22:54.725Z,19.50
2019-04-30T17:25:24.363Z,20.63
2019-04-30T17:27:53.716Z,20.43
2019-04-30T17:30:23.328Z,19.67
2019-04-30T17:32:52.528Z,20.80
2019-04-30T17:35:21.741Z,19.37
2019-04-30T17:37:51.044Z,21.37
2019-04-30T17:40:20.210Z,20.87
2019-04-30T17:42:49.704Z,19.67
2019-04-30T17:45:19.594Z,20.77
2019-04-30T17:47:48.945Z,20.10
2019-04-30T17:50:18.739Z,20.20
2019-04-30T17:52:48.363Z,20.53
2019-04-30T17:55:19.343Z,20.90
2019-04-30T17:57:48.783Z,20.70
2019-04-30T18:00:22.102Z,18.77
2019-04-30T18:02:49.848Z,19.37
2019-04-30T18:05:19.662Z,19.73
2019-04-30T18:07:49.778Z,20.93
2019-04-30T18:10:20.498Z,19.53
2019-04-30T18:12:49.804Z,19.17
2019-04-30T18:15:21.509Z,19.50
2019-04-30T18:17:57.797Z,18.57
2019-04-30T18:20:34.998Z,19.97
2019-04-30T18:23:23.571Z,20.57
2019-04-30T18:25:57.170Z,19.67
2019-04-30T18:28:26.554Z,19.93
2019-04-30T18:30:56.169Z,19.93
2019-04-30T18:33:25.377Z,20.53
2019-04-30T18:35:54.561Z,20.23
2019-04-30T18:38:24.291Z,21.13
2019-04-30T18:40:53.672Z,20.40
2019-04-30T18:43:23.051Z,21.03
2019-04-30T18:45:52.432Z,19.80
2019-04-30T18:48:21.768Z,20.60
2019-04-30T18:50:51.166Z,21.40
2019-04-30T18:53:24.348Z,20.93
2019-04-30T18:55:53.927Z,22.53
2019-04-30T18:58:23.204Z,22.93
2019-04-30T19:00:52.789Z,26.87
2019-04-30T19:03:22.600Z,21.83
2019-04-30T19:05:58.613Z,22.50
2019-04-30T19:08:33.114Z,22.57
2019-04-30T19:11:15.709Z,22.27
2019-04-30T19:13:59.227Z,22.80
2019-04-30T19:16:46.419Z,23.07
2019-04-30T19:19:20.571Z,25.70
2019-04-30T19:21:50.030Z,23.13
2019-04-30T19:24:19.724Z,24.13
2019-04-30T19:26:48.940Z,27.87
2019-04-30T19:29:18.455Z,26.07
2019-04-30T19:31:49.352Z,23.77
2019-04-30T19:34:18.473Z,23.10
2019-04-30T19:36:49.111Z,23.40
2019-04-30T19:39:19.506Z,22.87
2019-04-30T19:41:49.014Z,21.87
2019-04-30T19:44:20.631Z,22.20
2019-04-30T19:46:48.814Z,23.70
2019-04-30T19:49:19.221Z,23.53
2019-04-30T19:51:49.503Z,24.90
2019-04-30T19:54:19.248Z,23.47
2019-04-30T19:56:50.093Z,25.43
2019-04-30T19:59:19.396Z,25.80
2019-04-30T20:01:48.850Z,27.43
2019-04-30T20:04:18.544Z,26.13
2019-04-30T20:06:48.710Z,24.83
2019-04-30T20:09:19.415Z,29.23
2019-04-30T20:11:49.297Z,26.67
2019-04-30T20:14:18.776Z,23.33
2019-04-30T20:16:48.661Z,25.90
2019-04-30T20:19:17.944Z,25.73
2019-04-30T20:21:51.373Z,25.73
2019-04-30T20:24:19.116Z,27.07
2019-04-30T20:26:50.225Z,27.47
2019-04-30T20:29:19.487Z,27.03
2019-04-30T20:31:48.933Z,26.20
2019-04-30T20:34:19.203Z,26.87
2019-04-30T20:36:48.461Z,27.07
2019-04-30T20:39:36.489Z,25.80
2019-04-30T20:42:08.225Z,25.57
2019-04-30T20:44:39.987Z,25.03
2019-04-30T20:47:11.930Z,26.67
2019-04-30T20:49:42.105Z,25.93
2019-04-30T20:52:12.053Z,25.50
2019-04-30T20:54:42.284Z,29.90
2019-04-30T20:57:11.937Z,30.53
2019-04-30T20:59:41.155Z,26.80
2019-04-30T21:02:10.466Z,27.13
2019-04-30T21:04:41.543Z,28.00
2019-04-30T21:07:11.105Z,27.80
2019-04-30T21:09:40.713Z,27.70
2019-04-30T21:12:10.096Z,26.83
2019-04-30T21:14:40.602Z,27.13
2019-04-30T21:17:09.867Z,27.23
2019-04-30T21:19:40.661Z,28.07
2019-04-30T21:22:10.160Z,25.70
2019-04-30T21:24:39.358Z,28.30
2019-04-30T21:27:08.668Z,28.60
2019-04-30T21:29:39.137Z,28.93
2019-04-30T21:32:23.642Z,26.67
2019-04-30T21:35:15.052Z,29.83
2019-04-30T21:37:44.448Z,28.90
2019-04-30T21:40:14.036Z,26.60
2019-04-30T21:42:43.482Z,27.53
2019-04-30T21:45:12.650Z,27.60
2019-04-30T21:47:41.857Z,28.87
2019-04-30T21:50:11.295Z,29.37
2019-04-30T21:52:40.792Z,28.63
2019-04-30T21:55:10.111Z,28.80
2019-04-30T21:57:41.353Z,27.87
2019-04-30T22:00:11.706Z,28.70
2019-04-30T22:02:41.245Z,27.87
2019-04-30T22:05:11.314Z,27.83
2019-04-30T22:07:40.647Z,27.67
2019-04-30T22:10:10.031Z,28.40
2019-04-30T22:12:39.508Z,27.57
2019-04-30T22:15:08.951Z,28.67
2019-04-30T22:17:39.182Z,28.00
2019-04-30T22:20:09.587Z,25.70
2019-04-30T22:22:39.246Z,28.00
2019-04-30T22:25:10.119Z,27.70
2019-04-30T22:27:39.236Z,29.57
2019-04-30T22:30:08.975Z,27.67
2019-04-30T22:32:38.370Z,29.07
2019-04-30T22:35:29.467Z,27.83
2019-04-30T22:38:00.325Z,28.57
2019-04-30T22:40:31.636Z,25.40
2019-04-30T22:43:00.701Z,26.03
2019-04-30T22:45:35.112Z,27.47
2019-04-30T22:48:04.449Z,27.33
2019-04-30T22:50:33.914Z,25.90
2019-04-30T22:53:03.404Z,27.97
2019-04-30T22:55:32.761Z,26.67
2019-04-30T22:58:01.908Z,28.50
2019-04-30T23:00:43.148Z,24.97
2019-04-30T23:03:19.710Z,26.30
2019-04-30T23:05:51.309Z,26.47
2019-04-30T23:08:22.989Z,25.90
2019-04-30T23:10:52.293Z,25.77
2019-04-30T23:13:22.347Z,25.30
2019-04-30T23:15:54.006Z,28.73
2019-04-30T23:18:23.384Z,25.60
2019-04-30T23:20:53.176Z,27.43
2019-04-30T23:23:22.390Z,25.93
2019-04-30T23:25:51.924Z,26.50
2019-04-30T23:28:21.236Z,23.70
2019-04-30T23:30:50.407Z,26.70
2019-04-30T23:33:19.856Z,26.60
2019-04-30T23:35:49.317Z,24.47
2019-04-30T23:38:18.393Z,24.50
2019-04-30T23:40:49.132Z,25.40
2019-04-30T23:43:18.952Z,22.67
2019-04-30T23:45:48.412Z,24.07
2019-04-30T23:48:18.157Z,24.80
2019-04-30T23:50:47.345Z,24.33
2019-04-30T23:53:16.928Z,23.30
2019-04-30T23:55:46.355Z,23.17
2019-04-30T23:58:15.547Z,24.13
